地図

経路データ

SID SEASON NUMBER BASIN SUBBASIN NAME ISO_TIME NATURE LAT LON WMO_WIND WMO_PRES WMO_AGENCY TRACK_TYPE DIST2LAND LANDFALL IFLAG USA_AGENCY USA_ATCF_ID USA_LAT USA_LON USA_RECORD USA_STATUS USA_WIND USA_PRES USA_SSHS USA_R34_NE USA_R34_SE USA_R34_SW USA_R34_NW USA_R50_NE USA_R50_SE USA_R50_SW USA_R50_NW USA_R64_NE USA_R64_SE USA_R64_SW USA_R64_NW USA_POCI USA_ROCI USA_RMW USA_EYE TOKYO_LAT TOKYO_LON TOKYO_GRADE TOKYO_WIND TOKYO_PRES TOKYO_R50_DIR TOKYO_R50_LONG TOKYO_R50_SHORT TOKYO_R30_DIR TOKYO_R30_LONG TOKYO_R30_SHORT TOKYO_LAND CMA_LAT CMA_LON CMA_CAT CMA_WIND CMA_PRES HKO_LAT HKO_LON HKO_CAT HKO_WIND HKO_PRES NEWDELHI_LAT NEWDELHI_LON NEWDELHI_GRADE NEWDELHI_WIND NEWDELHI_PRES NEWDELHI_CI NEWDELHI_DP NEWDELHI_POCI REUNION_LAT REUNION_LON REUNION_TYPE REUNION_WIND REUNION_PRES REUNION_TNUM REUNION_CI REUNION_RMW REUNION_R34_NE REUNION_R34_SE REUNION_R34_SW REUNION_R34_NW REUNION_R50_NE REUNION_R50_SE REUNION_R50_SW REUNION_R50_NW REUNION_R64_NE REUNION_R64_SE REUNION_R64_SW REUNION_R64_NW BOM_LAT BOM_LON BOM_TYPE BOM_WIND BOM_PRES BOM_TNUM BOM_CI BOM_RMW BOM_R34_NE BOM_R34_SE BOM_R34_SW BOM_R34_NW BOM_R50_NE BOM_R50_SE BOM_R50_SW BOM_R50_NW BOM_R64_NE BOM_R64_SE BOM_R64_SW BOM_R64_NW BOM_ROCI BOM_POCI BOM_EYE BOM_POS_METHOD BOM_PRES_METHOD NADI_LAT NADI_LON NADI_CAT NADI_WIND NADI_PRES WELLINGTON_LAT WELLINGTON_LON WELLINGTON_WIND WELLINGTON_PRES DS824_LAT DS824_LON DS824_STAGE DS824_WIND DS824_PRES TD9636_LAT TD9636_LON TD9636_STAGE TD9636_WIND TD9636_PRES TD9635_LAT TD9635_LON TD9635_WIND TD9635_PRES TD9635_ROCI NEUMANN_LAT NEUMANN_LON NEUMANN_CLASS NEUMANN_WIND NEUMANN_PRES MLC_LAT MLC_LON MLC_CLASS MLC_WIND MLC_PRES USA_GUST BOM_GUST BOM_GUST_PER REUNION_GUST REUNION_GUST_PER USA_SEAHGT USA_SEARAD_NE USA_SEARAD_SE USA_SEARAD_SW USA_SEARAD_NW STORM_SPEED STORM_DIR
1959045S13044 1959 20 SI MM NOT_NAMED 1959-02-14 06:00:00 TS -13.0750 43.6500 reunion main 337 326 O____O___OO___ jtwc_sh SH211959 -12.9000 43.2000 -1 -13.6000 45.0000 99 9.90000 -12.9000 43.2000 TC 25 -12.9000 43.2000 7 10 84
1959045S13044 1959 20 SI MM NOT_NAMED 1959-02-14 09:00:00 TS -13.0229 44.1654 main 349 337 P____P___PP___ SH211959 -12.8527 43.7875 -1 -13.5474 45.2488 99 -12.8527 43.7875 TC 25 -12.8390 43.8378 7 10 84
1959045S13044 1959 20 SI MM NOT_NAMED 1959-02-14 12:00:00 TS -12.9694 44.6947 main 337 305 O____P___OP___ jtwc_sh SH211959 -12.8000 44.4000 -1 -13.4961 45.5083 99 -12.8000 44.4000 TC 25 -12.7817 44.4703 7 11 84
1959045S13044 1959 20 SI MM NOT_NAMED 1959-02-14 15:00:00 TS -12.9166 45.2455 main 305 244 P____P___PP___ SH211959 -12.7424 45.0500 -1 -13.4478 45.7893 99 -12.7424 45.0500 TC 25 -12.7336 45.0927 7 11 85
1959045S13044 1959 20 SI MM NOT_NAMED 1959-02-14 18:00:00 TS -12.8760 45.8007 main 244 195 O____P___OO___ jtwc_sh SH211959 -12.7000 45.7000 -1 -13.4039 46.1027 99 -12.7000 45.7000 TC 25 -12.7000 45.7000 7 11 87
1959045S13044 1959 20 SI MM NOT_NAMED 1959-02-14 21:00:00 TS -12.8587 46.3380 main 195 140 P____P___PP___ SH211959 -12.6923 46.2999 -1 -13.3658 46.4595 99 -12.6923 46.2999 TC 25 -12.6846 46.2924 7 11 89
1959045S13044 1959 20 SI MM NOT_NAMED 1959-02-15 00:00:00 TS -12.8546 46.8901 main 140 101 O____P___OP___ jtwc_sh SH211959 -12.7000 46.9000 -1 -13.3350 46.8706 99 -12.7000 46.9000 TC 25 -12.6835 46.8899 7 11 90
1959045S13044 1959 20 SI MM NOT_NAMED 1959-02-15 03:00:00 TS -12.8507 47.4762 main 95 79 P____P___PP___ SH211959 -12.6997 47.5200 -1 -13.3127 47.3471 99 -12.6997 47.5200 TC 30 -12.6907 47.5175 7 12 90
1959045S13044 1959 20 SI MM NOT_NAMED 1959-02-15 06:00:00 TS -12.8500 48.1250 reunion main 79 15 O____O___OO___ jtwc_sh SH211959 -12.7000 48.2000 -1 -13.3000 47.9000 99 9.90000 -12.7000 48.2000 TC 35 -12.7000 48.2000 2 14 90
1959045S13044 1959 20 SI MM NOT_NAMED 1959-02-15 09:00:00 TS -12.8495 48.8706 main 10 0 P____P___PP___ SH211959 -12.6999 48.9700 -1 -13.2973 48.5343 99 -12.6999 48.9700 TC 35 -12.7008 49.0080 2 15 90
1959045S13044 1959 20 SI MM NOT_NAMED 1959-02-15 12:00:00 TS -12.8510 49.6737 main 0 0 O____P___OP___ jtwc_sh SH211959 -12.7000 49.8000 -1 -13.3028 49.2299 99 -12.7000 49.8000 TC 35 -12.7013 49.8650 2 16 90
1959045S13044 1959 20 SI MM NOT_NAMED 1959-02-15 15:00:00 TS -12.8538 50.5011 main 66 66 P____P___PP___ SH211959 -12.7000 50.6650 -1 -13.3141 49.9602 99 -12.7000 50.6650 TC 35 -12.7009 50.7144 2 16 90
1959045S13044 1959 20 SI MM NOT_NAMED 1959-02-15 18:00:00 TS -12.8574 51.2997 main 151 151 O____P___OO___ jtwc_sh SH211959 -12.7000 51.5000 -1 -13.3294 50.6987 99 -12.7000 51.5000 TC 35 -12.7000 51.5000 2 15 90
1959045S13044 1959 20 SI MM NOT_NAMED 1959-02-15 21:00:00 TS -12.8615 52.0386 main 223 223 P____P___PP___ SH211959 -12.6999 52.2600 -1 -13.3469 51.4187 99 -12.6999 52.2600 TC 35 -12.6995 52.2157 2 14 90
1959045S13044 1959 20 SI MM NOT_NAMED 1959-02-16 00:00:00 TS -12.8662 52.6864 main 297 297 O____P___OP___ jtwc_sh SH211959 -12.7000 52.9000 -1 -13.3652 52.0933 99 -12.7000 52.9000 TC 35 -12.6996 52.8522 2 12 90
1959045S13044 1959 20 SI MM NOT_NAMED 1959-02-16 03:00:00 TS -12.8707 53.2371 main 350 350 P____P___PP___ SH211959 -12.6999 53.4325 -1 -13.3832 52.6960 99 -12.6999 53.4325 TC 35 -12.6998 53.3876 2 9 91
1959045S13044 1959 20 SI MM NOT_NAMED 1959-02-16 06:00:00 TS -12.8750 53.6500 reunion main 402 402 O____O___OO___ jtwc_sh SH211959 -12.7000 53.8000 -1 -13.4000 53.2000 99 9.90000 -12.7000 53.8000 TC 35 -12.7000 53.8000 2 7 91
1959045S13044 1959 20 SI MM NOT_NAMED 1959-02-16 09:00:00 TS -12.8775 53.9120 main 423 423 P____P___PP___ SH211959 -12.6999 53.9950 -1 -13.4151 53.5859 99 -12.6999 53.9950 TC 30 -12.6952 54.0721 2 4 91
1959045S13044 1959 20 SI MM NOT_NAMED 1959-02-16 12:00:00 TS -12.8801 54.0724 main 444 444 O____P___OP___ jtwc_sh SH211959 -12.7000 54.1000 -1 -13.4288 53.8623 99 -12.7000 54.1000 TC 25 -12.6916 54.2275 2 3 91
1959045S13044 1959 20 SI MM NOT_NAMED 1959-02-16 15:00:00 TS -12.8835 54.2160 main 455 455 P____P___PP___ SH211959 -12.7000 54.2500 -1 -13.4416 54.0451 99 -12.7000 54.2500 TC 25 -12.6923 54.3190 2 3 92
1959045S13044 1959 20 SI MM NOT_NAMED 1959-02-16 18:00:00 TS -12.8885 54.3374 main 465 465 O____P___OO___ jtwc_sh SH211959 -12.7000 54.4000 -1 -13.4538 54.1497 99 -12.7000 54.4000 TC 25 -12.7000 54.4000 7 2 92
1959045S13044 1959 20 SI MM NOT_NAMED 1959-02-16 21:00:00 TS -12.8921 54.4615 main 486 486 P____P___PP___ SH211959 -12.6925 54.5500 -1 -13.4657 54.1920 99 -12.6925 54.5500 TC 25 -12.7178 54.5541 7 3 85
1959045S13044 1959 20 SI MM NOT_NAMED 1959-02-17 00:00:00 TS -12.8668 54.5995 main 497 497 O____P___OP___ jtwc_sh SH211959 -12.7000 54.7000 -1 -13.4773 54.1873 99 -12.7000 54.7000 TC 25 -12.7425 54.7075 7 3 84
1959045S13044 1959 20 SI MM NOT_NAMED 1959-02-17 03:00:00 TS -12.8615 54.7523 main 518 518 P____P___PP___ SH211959 -12.7500 54.8500 -1 -13.4887 54.1515 99 -12.7500 54.8500 TC 25 -12.7709 54.8572 7 3 88
1959045S13044 1959 20 SI MM NOT_NAMED 1959-02-17 06:00:00 TS -12.8538 54.9308 reunion main 529 529 O____O___OO___ jtwc_sh SH211959 -12.8000 55.0000 -1 -13.5000 54.1000 99 9.90000 -12.8000 55.0000 TC 25 -12.8000 55.0000 7 4 82
1959045S13044 1959 20 SI MM NOT_NAMED 1959-02-17 09:00:00 TS -12.8097 55.1491 main 552 552 P________PP___ SH211959 -12.8000 55.1575 -1 99 -12.8000 55.1575 TC 25 -12.8290 55.1322 7 3 84
1959045S13044 1959 20 SI MM NOT_NAMED 1959-02-17 12:00:00 TS -12.8191 55.2858 main 574 574 O________OP___ jtwc_sh SH211959 -12.8000 55.3000 -1 99 -12.8000 55.3000 TC 25 -12.8575 55.2575 7 2 102
1959045S13044 1959 20 SI MM NOT_NAMED 1959-02-17 15:00:00 TS -12.8607 55.3930 main 582 582 P________PP___ SH211959 -12.8500 55.4000 -1 99 -12.8500 55.4000 TC 25 -12.8822 55.3791 7 2 111
1959045S13044 1959 20 SI MM NOT_NAMED 1959-02-17 18:00:00 TS -12.9000 55.5000 main 593 593 O________OO___ jtwc_sh SH211959 -12.9000 55.5000 -1 99 -12.9000 55.5000 TC 25 -12.9000 55.5000 7 3 100
1959045S13044 1959 20 SI MM NOT_NAMED 1959-02-17 21:00:00 TS -12.9061 55.6552 main 614 614 P________PP___ SH211959 -12.9075 55.6500 -1 99 -12.9075 55.6500 TC 25 -12.9032 55.6656 7 3 90
1959045S13044 1959 20 SI MM NOT_NAMED 1959-02-18 00:00:00 TS -12.9000 55.8083 main 625 625 O________OP___ jtwc_sh SH211959 -12.9000 55.8000 -1 99 -12.9000 55.8000 TC 25 -12.9000 55.8250 7 3 89
1959045S13044 1959 20 SI MM NOT_NAMED 1959-02-18 03:00:00 TS -12.8990 55.9406 main 635 635 P________PP___ SH211959 -12.9000 55.9375 -1 99 -12.9000 55.9375 TC 25 -12.8969 55.9469 7 2 90
1959045S13044 1959 20 SI MM NOT_NAMED 1959-02-18 06:00:00 TS -12.9000 56.0000 main 646 635 O________OO___ jtwc_sh SH211959 -12.9000 56.0000 -1 -12.9000 56.0000 TC 25 -12.9000 56.0000 7 0 0
1959045S13044 1959 20 SI MM NOT_NAMED 1959-02-18 09:00:00 TS -12.9009 55.9406 main 635 625 P________PP___ SH211959 -12.8925 55.9375 -1 -12.8925 55.9375 TC 25 -12.9178 55.9469 7 2 266
1959045S13044 1959 20 SI MM NOT_NAMED 1959-02-18 12:00:00 TS -12.9142 55.8083 main 625 612 O________OP___ jtwc_sh SH211959 -12.9000 55.8000 -1 -12.9000 55.8000 TC 25 -12.9425 55.8250 7 3 258
1959045S13044 1959 20 SI MM NOT_NAMED 1959-02-18 15:00:00 TS -12.9570 55.6602 main 612 591 P________PP___ SH211959 -12.9500 55.6575 -1 -12.9500 55.6575 TC 25 -12.9710 55.6656 7 3 254
1959045S13044 1959 20 SI MM NOT_NAMED 1959-02-18 18:00:00 TS -13.0000 55.5000 main 591 580 O________OO___ jtwc_sh SH211959 -13.0000 55.5000 -1 -13.0000 55.5000 TC 25 -13.0000 55.5000 7 3 260
1959045S13044 1959 20 SI MM NOT_NAMED 1959-02-18 21:00:00 TS -13.0083 55.3520 main 580 559 P________PP___ SH211959 -13.0000 55.3425 -1 -13.0000 55.3425 TC 25 -13.0250 55.3709 7 3 267
1959045S13044 1959 20 SI MM NOT_NAMED 1959-02-19 00:00:00 TS -13.0167 55.2142 main 559 546 O________OP___ jtwc_sh SH211959 -13.0000 55.2000 -1 -13.0000 55.2000 TC 25 -13.0500 55.2425 7 2 258
1959045S13044 1959 20 SI MM NOT_NAMED 1959-02-19 03:00:00 TS -13.0583 55.1009 main 546 525 P________PP___ SH211959 -13.0500 55.0925 -1 -13.0500 55.0925 TC 25 -13.0750 55.1178 7 3 246
1959045S13044 1959 20 SI MM NOT_NAMED 1959-02-19 06:00:00 TS -13.1385 54.9308 reunion main 525 512 O________OO___ jtwc_sh SH211959 -13.1000 55.0000 -1 -13.1000 55.0000 TC 25 -13.1000 55.0000 7 3 249
1959045S13044 1959 20 SI MM NOT_NAMED 1959-02-19 09:00:00 TS -13.1825 54.7713 main 512 491 P________PP___ SH211959 -13.1000 54.9000 -1 -13.1000 54.9000 TC 25 -13.1290 54.8928 7 3 254
1959045S13044 1959 20 SI MM NOT_NAMED 1959-02-19 12:00:00 TS -13.2230 54.6224 main 491 479 O________OP___ jtwc_sh SH211959 -13.1000 54.8000 -1 -13.1000 54.8000 TC 25 -13.1575 54.7925 7 3 250
1959045S13044 1959 20 SI MM NOT_NAMED 1959-02-19 15:00:00 TS -13.2845 54.4792 main 479 468 P________PP___ SH211959 -13.1500 54.7000 -1 -13.1500 54.7000 TC 25 -13.1822 54.6959 7 3 249
1959045S13044 1959 20 SI MM NOT_NAMED 1959-02-19 18:00:00 TS -13.3178 54.3763 main 468 457 O________OO___ jtwc_sh SH211959 -13.2000 54.6000 -1 -13.2000 54.6000 TC 25 -13.2000 54.6000 7 2 258
1959045S13044 1959 20 SI MM NOT_NAMED 1959-02-19 21:00:00 TS -13.3255 54.2818 main 457 446 P________PP___ SH211959 -13.2075 54.5000 -1 -13.2075 54.5000 TC 25 -13.2028 54.5568 7 2 268
1959045S13044 1959 20 SI MM NOT_NAMED 1959-02-20 00:00:00 TS -13.3233 54.1789 main 446 436 O________OP___ jtwc_sh SH211959 -13.2000 54.4000 -1 -13.2000 54.4000 TC 25 -13.1994 54.5049 7 2 270
1959045S13044 1959 20 SI MM NOT_NAMED 1959-02-20 03:00:00 TS -13.3239 54.0782 main 436 414 P________PP___ SH211959 -13.1999 54.3450 -1 -13.1999 54.3450 TC 30 -13.1964 54.4005 7 3 270
1959045S13044 1959 20 SI MM NOT_NAMED 1959-02-20 06:00:00 TS -13.3250 53.9000 reunion main 414 382 O________OO___ jtwc_sh SH211959 -13.2000 54.2000 -1 -13.2000 54.2000 TC 35 -13.2000 54.2000 2 5 270
1959045S13044 1959 20 SI MM NOT_NAMED 1959-02-20 09:00:00 TS -13.3269 53.5739 main 382 339 P________PP___ SH211959 -13.1925 53.8599 -1 -13.1925 53.8599 TC 35 -13.2265 53.8345 2 7 269
1959045S13044 1959 20 SI MM NOT_NAMED 1959-02-20 12:00:00 TS -13.3374 53.1573 main 339 284 O________OP___ jtwc_sh SH211959 -13.2000 53.4000 -1 -13.2000 53.4000 TC 35 -13.2583 53.3752 2 8 267
1959045S13044 1959 20 SI MM NOT_NAMED 1959-02-20 15:00:00 TS -13.3727 52.7029 main 284 242 P________PP___ SH211959 -13.2576 52.8926 -1 -13.2576 52.8926 TC 35 -13.2858 52.8783 2 9 266
1959045S13044 1959 20 SI MM NOT_NAMED 1959-02-20 18:00:00 TS -13.3992 52.2586 main 242 199 O________OO___ jtwc_sh SH211959 -13.3000 52.4000 -1 -13.3000 52.4000 TC 35 -13.3000 52.4000 2 8 270
1959045S13044 1959 20 SI MM NOT_NAMED 1959-02-20 21:00:00 TS -13.3709 51.8945 main 199 171 P________PP___ SH211959 -13.2573 52.0274 -1 -13.2573 52.0274 TC 35 -13.2526 52.0006 2 7 275
1959045S13044 1959 20 SI MM NOT_NAMED 1959-02-21 00:00:00 TS -13.3377 51.5637 main 171 130 O________OP___ jtwc_sh SH211959 -13.2000 51.7000 -1 -13.2000 51.7000 TC 35 -13.1973 51.6320 2 6 274
1959045S13044 1959 20 SI MM NOT_NAMED 1959-02-21 03:00:00 TS -13.3304 51.2319 main 130 97 P________PP___ SH211959 -13.1700 51.3424 -1 -13.1700 51.3424 TC 35 -13.1683 51.2974 2 6 267
1959045S13044 1959 20 SI MM NOT_NAMED 1959-02-21 06:00:00 TS -13.3750 50.9250 reunion main 97 73 O________OO___ jtwc_sh SH211959 -13.2000 51.0000 -1 -13.2000 51.0000 TC 35 -13.2000 51.0000 2 6 255
1959045S13044 1959 20 SI MM NOT_NAMED 1959-02-21 09:00:00 TS -13.4850 50.6367 main 63 39 P________PP___ SH211959 -13.3125 50.6701 -1 -13.3125 50.6701 TC 35 -13.3190 50.7069 2 6 242
1959045S13044 1959 20 SI MM NOT_NAMED 1959-02-21 12:00:00 TS -13.6546 50.3948 main 34 10 O________OP___ jtwc_sh SH211959 -13.5000 50.4000 -1 -13.5000 50.4000 TC 35 -13.5024 50.4530 2 6 227
1959045S13044 1959 20 SI MM NOT_NAMED 1959-02-21 15:00:00 TS -13.8626 50.2128 main 10 0 P________PP___ SH211959 -13.7275 50.2125 -1 -13.7275 50.2125 TC 35 -13.7346 50.2475 2 5 213
1959045S13044 1959 20 SI MM NOT_NAMED 1959-02-21 18:00:00 TS -14.1080 50.0890 main 0 0 O________OO___ jtwc_sh SH211959 -14.0000 50.1000 -1 -14.0000 50.1000 TC 35 -14.0000 50.1000 2 5 202
1959045S13044 1959 20 SI MM NOT_NAMED 1959-02-21 21:00:00 TS -14.3675 50.0064 main 0 0 P________PP___ SH211959 -14.2925 50.0275 -1 -14.2925 50.0275 TC 35 -14.2549 50.0132 2 6 192
1959045S13044 1959 20 SI MM NOT_NAMED 1959-02-22 00:00:00 TS -14.6492 49.9662 main 0 0 O________OP___ jtwc_sh SH211959 -14.6000 50.0000 -1 -14.6000 50.0000 TC 35 -14.5399 49.9822 2 6 185
1959045S13044 1959 20 SI MM NOT_NAMED 1959-02-22 03:00:00 TS -14.9345 49.9501 main 0 0 P________PP___ SH211959 -14.8850 49.9925 -1 -14.8850 49.9925 TC 35 -14.8549 49.9851 2 6 182
1959045S13044 1959 20 SI MM NOT_NAMED 1959-02-22 06:00:00 TS -15.2500 49.9500 reunion main 0 0 O________OO___ jtwc_sh SH211959 -15.2000 50.0000 -1 -15.2000 50.0000 TC 35 -15.2000 50.0000 2 7 0
1959045S13044 1959 20 SI MM NOT_NAMED 1959-02-22 09:00:00 TS -15.6179 49.9299 main 10 10 P________PP___ SH211959 -15.5850 50.0000 -1 -15.5850 50.0000 TC 35 -15.5794 49.9847 2 8 183
1959045S13044 1959 20 SI MM NOT_NAMED 1959-02-22 12:00:00 TS -16.0161 49.9167 main 15 0 O________OP___ jtwc_sh SH211959 -16.0000 50.0000 -1 -16.0000 50.0000 TC 35 -15.9850 49.9776 2 8 0
1959045S13044 1959 20 SI MM NOT_NAMED 1959-02-22 15:00:00 TS -16.4191 49.9124 main 10 10 P________PP___ SH211959 -16.4075 50.0000 -1 -16.4075 50.0000 TC 50 -16.3981 49.9817 2 8 0
1959045S13044 1959 20 SI MM NOT_NAMED 1959-02-22 18:00:00 TS -16.8165 49.9190 main 10 10 O________OO___ jtwc_sh SH211959 -16.8000 50.0000 -1 -16.8000 50.0000 TC 65 -16.8000 50.0000 4 8 0
1959045S13044 1959 20 SI MM NOT_NAMED 1959-02-22 21:00:00 TS -17.1875 49.9199 main 46 46 P________PP___ SH211959 -17.1575 49.9851 -1 -17.1575 49.9851 TC 65 -17.1560 49.9916 4 7 178
1959045S13044 1959 20 SI MM NOT_NAMED 1959-02-23 00:00:00 TS -17.5485 49.9507 main 57 52 O________OP___ jtwc_sh SH211959 -17.5000 50.0000 -1 -17.5000 50.0000 TC 65 -17.4996 50.0036 4 7 172
1959045S13044 1959 20 SI MM NOT_NAMED 1959-02-23 03:00:00 TS -17.9081 50.0285 main 57 57 P________PP___ SH211959 -17.8425 50.0626 -1 -17.8425 50.0626 TC 65 -17.8434 50.0637 4 8 164
1959045S13044 1959 20 SI MM NOT_NAMED 1959-02-23 06:00:00 TS -18.2750 50.1750 reunion main 85 85 O________OO___ jtwc_sh SH211959 -18.2000 50.2000 -1 -18.2000 50.2000 TC 65 -18.2000 50.2000 4 8 155
1959045S13044 1959 20 SI MM NOT_NAMED 1959-02-23 09:00:00 TS -18.6656 50.3911 main 119 119 P________PP___ SH211959 -18.5924 50.4051 -1 -18.5924 50.4051 TC 50 -18.6060 50.4332 4 9 149
1959045S13044 1959 20 SI MM NOT_NAMED 1959-02-23 12:00:00 TS -19.0644 50.6844 main 164 164 O________OP___ jtwc_sh SH211959 -19.0000 50.7000 -1 -19.0000 50.7000 TC 35 -19.0226 50.7443 4 10 142
1959045S13044 1959 20 SI MM NOT_NAMED 1959-02-23 15:00:00 TS -19.4615 51.0434 main 207 207 P________PP___ SH211959 -19.4150 51.0774 -1 -19.4150 51.0774 TC 35 -19.4278 51.1083 4 11 137
1959045S13044 1959 20 SI MM NOT_NAMED 1959-02-23 18:00:00 TS -19.8320 51.4411 main 257 257 O________OO___ jtwc_sh SH211959 -19.8000 51.5000 -1 -19.8000 51.5000 TC 35 -19.8000 51.5000 2 10 133
1959045S13044 1959 20 SI MM NOT_NAMED 1959-02-23 21:00:00 TS -20.1569 51.8307 main 313 313 P________PP___ SH211959 -20.1224 51.9002 -1 -20.1224 51.9002 TC 35 -20.1311 51.8746 2 10 130
1959045S13044 1959 20 SI MM NOT_NAMED 1959-02-24 00:00:00 TS -20.4454 52.2309 main 321 273 O________OP___ jtwc_sh SH211959 -20.4000 52.3000 -1 -20.4000 52.3000 TC 35 -20.4248 52.2702 2 9 126
1959045S13044 1959 20 SI MM NOT_NAMED 1959-02-24 03:00:00 TS -20.7166 52.6386 main 273 229 P________PP___ SH211959 -20.6724 52.7001 -1 -20.6724 52.7001 TC 35 -20.6810 52.6808 2 9 123
1959045S13044 1959 20 SI MM NOT_NAMED 1959-02-24 06:00:00 TS -20.9500 53.0500 reunion main 219 186 O________OO___ jtwc_sh SH211959 -20.9000 53.1000 -1 -20.9000 53.1000 TC 35 -20.9000 53.1000 2 9 119
1959045S13044 1959 20 SI MM NOT_NAMED 1959-02-24 09:00:00 TS -21.1301 53.4505 main 176 145 P________PP___ SH211959 -21.0648 53.4927 -1 -21.0648 53.4927 TC 35 -21.0776 53.5227 2 8 114
1959045S13044 1959 20 SI MM NOT_NAMED 1959-02-24 12:00:00 TS -21.2803 53.8626 main 136 99 O________OP___ jtwc_sh SH211959 -21.2000 53.9000 -1 -21.2000 53.9000 TC 35 -21.2223 53.9511 2 8 111
1959045S13044 1959 20 SI MM NOT_NAMED 1959-02-24 15:00:00 TS -21.4266 54.2985 main 99 70 P________PP___ SH211959 -21.3425 54.3501 -1 -21.3425 54.3501 TC 35 -21.3558 54.3789 2 9 110
1959045S13044 1959 20 SI MM NOT_NAMED 1959-02-24 18:00:00 TS -21.5803 54.7348 main 70 49 O________OO___ jtwc_sh SH211959 -21.5000 54.8000 -1 -21.5000 54.8000 TC 35 -21.5000 54.8000 2 9 113
1959045S13044 1959 20 SI MM NOT_NAMED 1959-02-24 21:00:00 TS -21.7559 55.1415 main 59 54 P________PP___ SH211959 -21.6923 55.2076 -1 -21.6923 55.2076 TC 35 -21.6644 55.1798 2 8 116
1959045S13044 1959 20 SI MM NOT_NAMED 1959-02-25 00:00:00 TS -21.9448 55.5415 main 56 56 O________OP___ jtwc_sh SH211959 -21.9000 55.6000 -1 -21.9000 55.6000 TC 35 -21.8462 55.5566 2 8 117
1959045S13044 1959 20 SI MM NOT_NAMED 1959-02-25 03:00:00 TS -22.1324 55.9409 main 84 84 P________PP___ SH211959 -22.0847 55.9779 -1 -22.0847 55.9779 TC 35 -22.0549 55.9551 2 9 118
1959045S13044 1959 20 SI MM NOT_NAMED 1959-02-25 06:00:00 TS -22.3500 56.3750 reunion main 137 137 O________OO___ jtwc_sh SH211959 -22.3000 56.4000 -1 -22.3000 56.4000 TC 35 -22.3000 56.4000 2 10 119
1959045S13044 1959 20 SI MM NOT_NAMED 1959-02-25 09:00:00 TS -22.6086 56.8782 main 184 184 P________PP___ SH211959 -22.5774 56.9201 -1 -22.5774 56.9201 TC 30 -22.5567 56.9215 2 11 120
1959045S13044 1959 20 SI MM NOT_NAMED 1959-02-25 12:00:00 TS -22.9062 57.4242 main 243 243 O________OP___ jtwc_sh SH211959 -22.9000 57.5000 -1 -22.9000 57.5000 TC 25 -22.8526 57.4916 2 12 121
1959045S13044 1959 20 SI MM NOT_NAMED 1959-02-25 15:00:00 TS -23.2240 57.9886 main 303 303 P________PP___ SH211959 -23.2274 58.1003 -1 -23.2274 58.1003 TC 25 -23.1972 58.0909 2 12 123
1959045S13044 1959 20 SI MM NOT_NAMED 1959-02-25 18:00:00 TS -23.5836 58.5560 main 358 358 O________OO___ jtwc_sh SH211959 -23.6000 58.7000 -1 -23.6000 58.7000 TC 25 -23.6000 58.7000 7 13 127
1959045S13044 1959 20 SI MM NOT_NAMED 1959-02-25 21:00:00 TS -23.9701 59.0818 main 416 416 P________PP___ SH211959 -24.0121 59.2433 -1 -24.0121 59.2433 TC 25 -24.0171 59.2521 7 13 130
1959045S13044 1959 20 SI MM NOT_NAMED 1959-02-26 00:00:00 TS -24.4302 59.6557 main 481 481 O________OP___ jtwc_sh SH211959 -24.5000 59.8000 -1 -24.5000 59.8000 TC 25 -24.4974 59.8167 7 15 132
1959045S13044 1959 20 SI MM NOT_NAMED 1959-02-26 03:00:00 TS -24.9674 60.2853 main 569 569 P________PP___ SH211959 -25.0470 60.4062 -1 -25.0470 60.4062 TC 25 -25.0540 60.4226 7 17 134
1959045S13044 1959 20 SI MM NOT_NAMED 1959-02-26 06:00:00 TS -25.6308 61.0154 reunion main 662 662 O________OO___ jtwc_sh SH211959 -25.7000 61.1000 -1 -25.7000 61.1000 TC 25 -25.7000 61.1000 7 21 135
1959045S13044 1959 20 SI MM NOT_NAMED 1959-02-26 09:00:00 TS -26.4508 61.9085 main 795 795 P________PP___ SH211959 -26.4624 61.9130 -1 -26.4624 61.9130 TC 25 -26.4275 61.8995 7 23 136
1959045S13044 1959 20 SI MM NOT_NAMED 1959-02-26 12:00:00 TS -27.2796 62.7917 main 919 919 O________OP___ jtwc_sh SH211959 -27.3000 62.8000 -1 -27.3000 62.8000 TC 25 -27.2389 62.7751 7 23 136
1959045S13044 1959 20 SI MM NOT_NAMED 1959-02-26 15:00:00 TS -28.1250 63.6969 main 1043 1043 P________PP___ SH211959 -28.1347 63.7011 -1 -28.1347 63.7011 TC 25 -28.1055 63.6885 7 24 137
1959045S13044 1959 20 SI MM NOT_NAMED 1959-02-26 18:00:00 TS -29.0000 64.6000 main 1176 1176 O________OO___ jtwc_sh SH211959 -29.0000 64.6000 -1 -29.0000 64.6000 TC 25 -29.0000 64.6000 7 24 139
1959045S13044 1959 20 SI MM NOT_NAMED 1959-02-26 21:00:00 TS -29.8947 65.4653 main 1309 1309 P________PP___ SH211959 -29.8918 65.4590 -1 -29.8918 65.4590 TC 25 -29.9004 65.4778 7 23 141
1959045S13044 1959 20 SI MM NOT_NAMED 1959-02-27 00:00:00 TS -30.8006 66.3090 main 1436 1436 O________OP___ jtwc_sh SH211959 -30.8000 66.3000 -1 -30.8000 66.3000 TC 25 -30.8017 66.3271 7 23 141
1959045S13044 1959 20 SI MM NOT_NAMED 1959-02-27 03:00:00 TS -31.7033 67.1504 main 1567 1567 P________PP___ SH211959 -31.7037 67.1441 -1 -31.7037 67.1441 TC 25 -31.7024 67.1629 7 23 141
1959045S13044 1959 20 SI MM NOT_NAMED 1959-02-27 06:00:00 TS -32.6000 68.0000 main 1693 O________OO___ jtwc_sh SH211959 -32.6000 68.0000 -1 -32.6000 68.0000 TC 25 -32.6000 68.0000 7 23 141

IBTrACS Databaseについて

本データベースは、米国NOAAが公開する1842年以降の世界の熱帯低気圧のベストトラックデータアーカイブInternational Best Track Archive for Climate Stewardship (IBTrACS)を、ウェブで閲覧しやすい形式に変換したものです。

最終更新日:2021-12-06